createdAt,value
2023-05-08T00:00:50.156Z,15.94
2023-05-08T00:03:18.307Z,15.84
2023-05-08T00:05:46.567Z,15.86
2023-05-08T00:08:18.305Z,15.84
2023-05-08T00:10:49.850Z,15.86
2023-05-08T00:13:19.610Z,15.75
2023-05-08T00:15:48.506Z,15.71
2023-05-08T00:18:19.363Z,15.71
2023-05-08T00:20:47.453Z,15.60
2023-05-08T00:23:15.559Z,15.97
2023-05-08T00:25:45.234Z,15.71
2023-05-08T00:28:15.596Z,15.68
2023-05-08T00:30:45.578Z,15.79
2023-05-08T00:33:14.366Z,15.87
2023-05-08T00:35:44.678Z,15.81
2023-05-08T00:38:12.865Z,15.73
2023-05-08T00:40:43.776Z,15.47
2023-05-08T00:43:15.089Z,15.52
2023-05-08T00:45:42.867Z,15.71
2023-05-08T00:48:10.953Z,15.57
2023-05-08T00:50:38.844Z,15.47
2023-05-08T00:53:07.975Z,15.48
2023-05-08T00:55:36.079Z,15.48
2023-05-08T00:58:04.822Z,15.41
2023-05-08T01:00:35.514Z,15.51
2023-05-08T01:03:03.775Z,15.38
2023-05-08T01:05:32.165Z,15.34
2023-05-08T01:08:00.195Z,15.29
2023-05-08T01:10:44.100Z,15.33
2023-05-08T01:13:17.837Z,15.34
2023-05-08T01:15:51.755Z,15.50
2023-05-08T01:18:29.129Z,15.49
2023-05-08T01:21:08.672Z,15.33
2023-05-08T01:24:17.470Z,15.29
2023-05-08T01:27:30.959Z,15.34
2023-05-08T01:30:29.441Z,15.33
2023-05-08T01:33:03.665Z,15.22
2023-05-08T01:35:40.790Z,15.29
2023-05-08T01:38:20.634Z,15.16
2023-05-08T01:40:56.435Z,15.24
2023-05-08T01:43:31.317Z,15.23
2023-05-08T01:46:06.472Z,15.24
2023-05-08T01:48:40.285Z,15.43
2023-05-08T01:51:13.461Z,15.17
2023-05-08T01:53:46.033Z,15.18
2023-05-08T01:56:19.568Z,15.14
2023-05-08T01:58:49.598Z,15.23
2023-05-08T02:01:23.284Z,15.08
2023-05-08T02:03:56.508Z,15.01
2023-05-08T02:06:26.933Z,15.31
2023-05-08T02:08:58.542Z,15.19
2023-05-08T02:11:27.183Z,15.26
2023-05-08T02:13:58.884Z,15.13
2023-05-08T02:16:27.974Z,15.04
2023-05-08T02:19:02.119Z,15.04
2023-05-08T02:21:33.316Z,15.17
2023-05-08T02:24:03.459Z,15.06
2023-05-08T02:26:34.998Z,15.10
2023-05-08T02:29:04.836Z,15.05
2023-05-08T02:31:33.795Z,14.85
2023-05-08T02:34:07.566Z,15.05
2023-05-08T02:36:37.290Z,14.79
2023-05-08T02:39:09.407Z,14.99
2023-05-08T02:41:40.178Z,15.07
2023-05-08T02:44:08.328Z,14.86
2023-05-08T02:46:45.204Z,14.79
2023-05-08T02:49:33.907Z,14.82
2023-05-08T02:52:09.746Z,14.71
2023-05-08T02:54:47.520Z,14.74
2023-05-08T02:57:23.187Z,14.72
2023-05-08T02:59:58.504Z,14.68
2023-05-08T03:02:36.413Z,14.78
2023-05-08T03:05:17.098Z,14.67
2023-05-08T03:07:52.202Z,14.70
2023-05-08T03:10:22.550Z,14.82
2023-05-08T03:12:54.466Z,14.66
2023-05-08T03:15:27.930Z,14.65
2023-05-08T03:18:04.129Z,14.68
2023-05-08T03:20:40.782Z,14.50
2023-05-08T03:23:10.781Z,14.49
2023-05-08T03:25:41.058Z,14.50
2023-05-08T03:28:09.641Z,14.53
2023-05-08T03:30:40.203Z,14.65
2023-05-08T03:33:09.598Z,14.64
2023-05-08T03:35:40.045Z,14.49
2023-05-08T03:38:12.211Z,14.50
2023-05-08T03:40:42.821Z,14.52
2023-05-08T03:43:11.118Z,14.44
2023-05-08T03:45:40.275Z,14.39
2023-05-08T03:48:10.323Z,14.44
2023-05-08T03:50:39.949Z,14.39
2023-05-08T03:53:13.111Z,14.40
2023-05-08T03:55:45.568Z,14.45
2023-05-08T03:58:22.258Z,14.21
2023-05-08T04:01:00.349Z,14.49
2023-05-08T04:03:47.395Z,14.38
2023-05-08T04:06:28.729Z,14.45
2023-05-08T04:09:06.884Z,14.29
2023-05-08T04:11:42.143Z,14.25
2023-05-08T04:14:17.667Z,14.38
2023-05-08T04:17:04.202Z,14.32
2023-05-08T04:19:37.117Z,14.31
2023-05-08T04:22:10.410Z,14.15
2023-05-08T04:24:43.024Z,14.20
2023-05-08T04:27:12.383Z,13.99
2023-05-08T04:29:40.958Z,14.04
2023-05-08T04:32:13.744Z,14.05
2023-05-08T04:34:43.621Z,14.11
2023-05-08T04:37:27.520Z,14.20
2023-05-08T04:39:55.869Z,14.04
2023-05-08T04:42:25.989Z,13.96
2023-05-08T04:44:54.135Z,13.92
2023-05-08T04:47:24.083Z,14.05
2023-05-08T04:49:53.005Z,13.97
2023-05-08T04:52:21.011Z,13.86
2023-05-08T04:54:51.240Z,14.05
2023-05-08T04:57:19.323Z,13.99
2023-05-08T04:59:47.777Z,14.06
2023-05-08T05:02:16.716Z,14.07
2023-05-08T05:04:44.840Z,14.00
2023-05-08T05:07:12.996Z,14.11
2023-05-08T05:09:41.023Z,14.16
2023-05-08T05:12:10.285Z,14.20
2023-05-08T05:14:39.415Z,14.22
2023-05-08T05:17:07.668Z,14.50
2023-05-08T05:19:37.501Z,14.65
2023-05-08T05:22:09.340Z,14.29
2023-05-08T05:24:39.484Z,14.25
2023-05-08T05:27:08.819Z,14.35
2023-05-08T05:29:43.467Z,14.47
2023-05-08T05:32:11.986Z,14.37
2023-05-08T05:34:39.947Z,14.50
2023-05-08T05:37:09.119Z,14.40
2023-05-08T05:39:37.774Z,14.44
2023-05-08T05:42:10.361Z,14.30
2023-05-08T05:44:43.144Z,14.52
2023-05-08T05:47:14.915Z,14.57
2023-05-08T05:49:47.226Z,14.48
2023-05-08T05:52:16.693Z,14.60
2023-05-08T05:54:44.528Z,14.48
2023-05-08T05:57:13.246Z,14.39
2023-05-08T05:59:45.685Z,14.15
2023-05-08T06:02:20.361Z,14.55
2023-05-08T06:04:50.074Z,14.53
2023-05-08T06:07:20.908Z,14.51
2023-05-08T06:09:53.843Z,14.55
2023-05-08T06:12:22.560Z,14.59
2023-05-08T06:14:55.442Z,14.43
2023-05-08T06:17:24.806Z,14.33
2023-05-08T06:19:56.678Z,14.19
2023-05-08T06:22:25.685Z,14.30
2023-05-08T06:24:54.638Z,14.42
2023-05-08T06:27:23.621Z,14.29
2023-05-08T06:29:54.079Z,14.28
2023-05-08T06:32:24.857Z,14.19
2023-05-08T06:34:53.094Z,14.21
2023-05-08T06:37:21.442Z,14.09
2023-05-08T06:39:57.280Z,14.13
2023-05-08T06:42:34.049Z,14.17
2023-05-08T06:45:06.485Z,14.29
2023-05-08T06:47:34.673Z,14.28
2023-05-08T06:50:04.918Z,14.19
2023-05-08T06:52:33.267Z,14.27
2023-05-08T06:55:02.500Z,14.16
2023-05-08T06:57:32.175Z,14.35
2023-05-08T07:00:00.837Z,14.28
2023-05-08T07:02:39.073Z,14.41
2023-05-08T07:05:08.944Z,14.22
2023-05-08T07:07:37.156Z,14.27
2023-05-08T07:10:07.259Z,14.64
2023-05-08T07:12:36.242Z,14.64
2023-05-08T07:15:13.786Z,14.81
2023-05-08T07:17:48.061Z,14.71
2023-05-08T07:20:18.598Z,14.98
2023-05-08T07:22:48.016Z,15.02
2023-05-08T07:25:16.327Z,15.10
2023-05-08T07:27:47.954Z,15.32
2023-05-08T07:30:17.131Z,15.49
2023-05-08T07:32:48.100Z,15.49
2023-05-08T07:35:17.127Z,15.38
2023-05-08T07:37:45.477Z,15.34
2023-05-08T07:40:13.952Z,15.77
2023-05-08T07:42:43.455Z,15.64
2023-05-08T07:45:13.851Z,15.67
2023-05-08T07:47:52.224Z,15.86
2023-05-08T07:50:21.566Z,15.86
2023-05-08T07:52:50.488Z,15.60
2023-05-08T07:55:18.558Z,15.45
2023-05-08T07:57:47.471Z,15.78
2023-05-08T08:00:19.860Z,15.55
2023-05-08T08:02:48.680Z,15.92
2023-05-08T08:05:19.104Z,16.12
2023-05-08T08:07:47.952Z,15.96
2023-05-08T08:10:16.023Z,15.77
2023-05-08T08:12:46.216Z,16.12
2023-05-08T08:15:15.576Z,16.07
2023-05-08T08:17:44.487Z,16.05
2023-05-08T08:20:21.173Z,16.16
2023-05-08T08:22:51.289Z,16.29
2023-05-08T08:25:19.656Z,16.19
2023-05-08T08:27:50.469Z,16.33
2023-05-08T08:30:21.915Z,16.30
2023-05-08T08:32:50.752Z,16.24
2023-05-08T08:35:21.478Z,16.45
2023-05-08T08:37:52.705Z,16.46
2023-05-08T08:40:20.998Z,16.42
2023-05-08T08:42:50.720Z,16.34
2023-05-08T08:45:22.265Z,16.86
2023-05-08T08:47:54.888Z,16.39
2023-05-08T08:50:27.782Z,16.59
2023-05-08T08:53:08.899Z,16.39
2023-05-08T08:55:41.964Z,16.30
2023-05-08T08:58:19.262Z,16.56
2023-05-08T09:00:49.058Z,16.79
2023-05-08T09:03:19.082Z,16.35
2023-05-08T09:05:57.506Z,16.45
2023-05-08T09:08:27.934Z,16.49
2023-05-08T09:10:58.077Z,16.63
2023-05-08T09:13:29.940Z,16.58
2023-05-08T09:16:01.265Z,16.47
2023-05-08T09:18:29.476Z,16.54
2023-05-08T09:20:58.670Z,16.54
2023-05-08T09:23:30.581Z,16.40
2023-05-08T09:25:59.098Z,16.30
2023-05-08T09:28:27.514Z,16.56
2023-05-08T09:31:01.959Z,16.55
2023-05-08T09:33:31.742Z,16.50
2023-05-08T09:36:00.890Z,16.50
2023-05-08T09:41:25.443Z,16.46
2023-05-08T09:44:05.164Z,16.72
2023-05-08T09:46:36.971Z,16.86
2023-05-08T09:49:05.413Z,16.59
2023-05-08T09:51:36.643Z,16.53
2023-05-08T09:54:19.242Z,16.40
2023-05-08T09:56:47.343Z,16.70
2023-05-08T09:59:28.699Z,16.54
2023-05-08T10:01:58.210Z,16.64
2023-05-08T10:04:33.617Z,16.61
2023-05-08T10:07:02.076Z,16.48
2023-05-08T10:09:47.077Z,16.68
2023-05-08T10:12:23.594Z,16.76
2023-05-08T10:14:52.292Z,16.97
2023-05-08T10:17:27.428Z,17.65
2023-05-08T10:20:00.240Z,17.58
2023-05-08T10:22:33.724Z,17.31
2023-05-08T10:25:08.802Z,17.44
2023-05-08T10:27:47.929Z,17.36
2023-05-08T10:30:18.656Z,17.34
2023-05-08T10:32:52.240Z,17.67
2023-05-08T10:35:20.863Z,17.47
2023-05-08T10:37:52.818Z,17.42
2023-05-08T10:40:23.683Z,17.78
2023-05-08T10:42:52.861Z,17.73
2023-05-08T10:45:29.266Z,18.41
2023-05-08T10:48:05.297Z,18.05
2023-05-08T10:50:55.900Z,18.33
2023-05-08T10:53:33.423Z,18.07
2023-05-08T10:56:08.210Z,18.00
2023-05-08T10:58:40.467Z,18.29
2023-05-08T11:01:24.635Z,18.59
2023-05-08T11:03:56.226Z,19.37
2023-05-08T11:06:45.518Z,18.74
2023-05-08T11:09:21.869Z,19.20
2023-05-08T11:12:05.241Z,19.24
2023-05-08T11:14:41.582Z,19.72
2023-05-08T11:17:18.568Z,20.03
2023-05-08T11:19:59.720Z,20.12
2023-05-08T11:22:33.593Z,20.68
2023-05-08T11:25:05.386Z,20.35
2023-05-08T11:27:42.977Z,20.54
2023-05-08T11:30:36.387Z,20.68
2023-05-08T11:33:34.451Z,20.89
2023-05-08T11:36:17.422Z,20.58
2023-05-08T11:39:05.659Z,20.32
2023-05-08T11:41:36.222Z,20.10
2023-05-08T11:44:29.351Z,20.05
2023-05-08T11:47:04.549Z,20.02
2023-05-08T11:49:37.418Z,20.29
2023-05-08T11:52:06.537Z,20.05
2023-05-08T11:54:43.686Z,21.01
2023-05-08T11:57:18.499Z,20.51
2023-05-08T11:59:51.363Z,20.34
2023-05-08T12:02:22.863Z,21.28
2023-05-08T12:04:50.739Z,21.76
2023-05-08T12:07:20.571Z,21.57
2023-05-08T12:09:50.169Z,21.08
2023-05-08T12:12:22.317Z,20.45
2023-05-08T12:14:53.571Z,21.14
2023-05-08T12:17:21.959Z,21.94
2023-05-08T12:19:50.374Z,21.47
2023-05-08T12:22:23.968Z,21.67
2023-05-08T12:24:52.377Z,21.68
2023-05-08T12:27:22.400Z,21.85
2023-05-08T12:29:50.393Z,22.27
2023-05-08T12:32:20.593Z,22.64
2023-05-08T12:34:49.636Z,22.53
2023-05-08T12:37:25.462Z,22.34
2023-05-08T12:39:53.968Z,22.08
2023-05-08T12:42:22.488Z,22.65
2023-05-08T12:44:51.957Z,23.38
2023-05-08T12:47:26.848Z,23.34
2023-05-08T12:49:59.653Z,22.96
2023-05-08T12:52:29.422Z,22.52
2023-05-08T12:54:57.431Z,22.53
2023-05-08T12:57:26.761Z,22.05
2023-05-08T13:00:06.695Z,23.06
2023-05-08T13:02:41.713Z,23.42
2023-05-08T13:05:23.954Z,22.57
2023-05-08T13:07:53.260Z,22.63
2023-05-08T13:10:26.026Z,22.20
2023-05-08T13:12:56.690Z,22.33
2023-05-08T13:15:25.476Z,22.73
2023-05-08T13:17:55.098Z,23.17
2023-05-08T13:20:23.884Z,23.74
2023-05-08T13:22:51.823Z,22.65
2023-05-08T13:25:25.638Z,23.12
2023-05-08T13:27:57.136Z,23.50
2023-05-08T13:30:26.762Z,23.71
2023-05-08T13:32:57.421Z,22.63
2023-05-08T13:35:28.809Z,22.29
2023-05-08T13:37:57.030Z,21.92
2023-05-08T13:40:26.756Z,21.96
2023-05-08T13:42:54.824Z,22.51
2023-05-08T13:45:24.022Z,22.38
2023-05-08T13:47:55.720Z,21.77
2023-05-08T13:50:28.151Z,22.77
2023-05-08T13:52:57.481Z,22.64
2023-05-08T13:55:26.557Z,22.83
2023-05-08T13:57:54.879Z,23.07
2023-05-08T14:00:23.581Z,22.32
2023-05-08T14:02:56.125Z,22.33
2023-05-08T14:05:27.817Z,22.70
2023-05-08T14:07:55.852Z,21.94
2023-05-08T14:10:24.558Z,23.04
2023-05-08T14:12:52.748Z,22.62
2023-05-08T14:15:34.608Z,22.46
2023-05-08T14:18:06.051Z,22.21
2023-05-08T14:20:36.022Z,22.56
2023-05-08T14:23:04.782Z,22.82
2023-05-08T14:25:34.018Z,22.41
2023-05-08T14:28:03.169Z,22.75
2023-05-08T14:30:33.629Z,22.72
2023-05-08T14:33:02.890Z,23.16
2023-05-08T14:35:36.345Z,23.53
2023-05-08T14:38:13.082Z,22.71
2023-05-08T14:40:41.219Z,22.43
2023-05-08T14:43:10.239Z,23.39
2023-05-08T14:45:39.146Z,23.18
2023-05-08T14:48:09.715Z,24.96
2023-05-08T14:50:41.077Z,24.32
2023-05-08T14:53:11.178Z,24.91
2023-05-08T14:55:41.680Z,24.72
2023-05-08T14:58:10.071Z,23.36
2023-05-08T15:00:43.254Z,23.10
2023-05-08T15:03:13.364Z,24.91
2023-05-08T15:05:44.969Z,24.68
2023-05-08T15:08:20.553Z,23.91
2023-05-08T15:10:50.973Z,24.19
2023-05-08T15:13:18.793Z,22.81
2023-05-08T15:15:49.441Z,23.26
2023-05-08T15:18:18.585Z,22.99
2023-05-08T15:20:48.446Z,22.87
2023-05-08T15:23:23.429Z,22.66
2023-05-08T15:25:52.972Z,22.38
2023-05-08T15:28:21.260Z,22.36
2023-05-08T15:30:54.202Z,22.28
2023-05-08T15:33:23.740Z,22.37
2023-05-08T15:35:56.186Z,22.17
2023-05-08T15:38:28.843Z,21.39
2023-05-08T15:41:03.195Z,21.33
2023-05-08T15:43:31.443Z,21.09
2023-05-08T15:46:02.777Z,21.52
2023-05-08T15:48:31.050Z,21.12
2023-05-08T15:51:01.631Z,21.12
2023-05-08T15:53:33.986Z,20.87
2023-05-08T15:56:02.204Z,20.94
2023-05-08T15:58:30.257Z,20.85
2023-05-08T16:00:58.638Z,21.13
2023-05-08T16:03:36.460Z,20.81
2023-05-08T16:06:05.736Z,20.79
2023-05-08T16:08:35.001Z,20.59
2023-05-08T16:11:02.911Z,20.44
2023-05-08T16:13:31.875Z,20.63
2023-05-08T16:16:17.530Z,20.59
2023-05-08T16:18:50.913Z,19.99
2023-05-08T16:21:21.505Z,20.17
2023-05-08T16:23:54.285Z,20.18
2023-05-08T16:26:24.620Z,19.95
2023-05-08T16:28:54.728Z,20.03
2023-05-08T16:31:23.456Z,19.91
2023-05-08T16:33:51.527Z,20.17
2023-05-08T16:36:23.043Z,19.88
2023-05-08T16:38:50.933Z,19.89
2023-05-08T16:41:22.269Z,19.73
2023-05-08T16:43:51.782Z,19.80
2023-05-08T16:46:29.107Z,20.06
2023-05-08T16:48:58.713Z,20.00
2023-05-08T16:51:29.065Z,20.11
2023-05-08T16:53:58.208Z,19.92
2023-05-08T16:56:29.080Z,19.88
2023-05-08T16:58:57.118Z,19.94
2023-05-08T17:01:25.438Z,19.89
2023-05-08T17:03:54.434Z,19.86
2023-05-08T17:06:22.674Z,19.95
2023-05-08T17:08:50.749Z,20.12
2023-05-08T17:11:18.773Z,19.82
2023-05-08T17:13:48.331Z,19.80
2023-05-08T17:16:17.707Z,19.78
2023-05-08T17:18:47.348Z,19.75
2023-05-08T17:21:21.061Z,19.68
2023-05-08T17:23:49.656Z,19.63
2023-05-08T17:26:19.761Z,19.71
2023-05-08T17:28:52.799Z,19.72
2023-05-08T17:31:21.645Z,19.65
2023-05-08T17:33:52.117Z,19.87
2023-05-08T17:36:20.463Z,19.61
2023-05-08T17:38:50.464Z,19.47
2023-05-08T17:41:18.863Z,19.43
2023-05-08T17:43:46.946Z,19.51
2023-05-08T17:46:17.788Z,19.43
2023-05-08T17:48:46.204Z,19.31
2023-05-08T17:51:15.558Z,19.30
2023-05-08T17:53:48.913Z,19.41
2023-05-08T17:56:20.363Z,19.30
2023-05-08T17:58:48.429Z,19.28
2023-05-08T18:01:18.730Z,19.13
2023-05-08T18:03:48.321Z,19.03
2023-05-08T18:06:17.185Z,19.03
2023-05-08T18:08:46.966Z,19.09
2023-05-08T18:11:18.706Z,18.98
2023-05-08T18:13:47.403Z,19.02
2023-05-08T18:16:19.906Z,18.92
2023-05-08T18:18:48.549Z,18.89
2023-05-08T18:21:17.740Z,18.85
2023-05-08T18:23:45.634Z,18.85
2023-05-08T18:26:19.164Z,18.91
2023-05-08T18:28:47.141Z,18.72
2023-05-08T18:31:16.624Z,18.77
2023-05-08T18:33:46.727Z,18.74
2023-05-08T18:36:14.671Z,18.79
2023-05-08T18:38:44.310Z,18.81
2023-05-08T18:41:12.411Z,18.70
2023-05-08T18:43:41.806Z,18.64
2023-05-08T18:46:18.066Z,18.63
2023-05-08T18:48:47.598Z,18.66
2023-05-08T18:51:15.763Z,18.56
2023-05-08T18:53:45.346Z,18.58
2023-05-08T18:56:13.121Z,18.50
2023-05-08T18:58:42.290Z,18.75
2023-05-08T19:01:10.462Z,18.49
2023-05-08T19:03:39.788Z,18.37
2023-05-08T19:06:10.096Z,18.40
2023-05-08T19:08:40.357Z,18.41
2023-05-08T19:11:08.567Z,18.42
2023-05-08T19:13:37.058Z,18.45
2023-05-08T19:16:06.937Z,18.42
2023-05-08T19:18:36.127Z,18.46
2023-05-08T19:21:03.987Z,18.43
2023-05-08T19:23:34.158Z,18.41
2023-05-08T19:26:02.166Z,18.27
2023-05-08T19:28:32.027Z,18.33
2023-05-08T19:31:03.446Z,18.31
2023-05-08T19:33:32.909Z,18.34
2023-05-08T19:36:03.623Z,18.21
2023-05-08T19:38:32.826Z,18.29
2023-05-08T19:41:01.958Z,18.23
2023-05-08T19:43:30.505Z,18.27
2023-05-08T19:45:58.557Z,18.20
2023-05-08T19:48:28.413Z,18.25
2023-05-08T19:50:58.357Z,18.20
2023-05-08T19:53:29.030Z,18.21
2023-05-08T19:56:00.785Z,18.06
2023-05-08T19:58:28.986Z,18.04
2023-05-08T20:00:59.783Z,18.08
2023-05-08T20:03:28.216Z,18.04
2023-05-08T20:05:57.592Z,17.95
2023-05-08T20:08:25.675Z,17.85
2023-05-08T20:10:54.120Z,17.74
2023-05-08T20:13:23.840Z,17.89
2023-05-08T20:15:56.953Z,17.75
2023-05-08T20:18:27.498Z,17.73
2023-05-08T20:20:56.325Z,17.68
2023-05-08T20:23:25.426Z,17.62
2023-05-08T20:25:55.272Z,17.51
2023-05-08T20:28:26.188Z,17.54
2023-05-08T20:30:58.812Z,17.41
2023-05-08T20:33:27.917Z,17.41
2023-05-08T20:35:59.746Z,17.60
2023-05-08T20:38:29.746Z,17.52
2023-05-08T20:41:00.886Z,17.42
2023-05-08T20:43:34.609Z,17.38
2023-05-08T20:46:02.618Z,17.28
2023-05-08T20:48:32.039Z,17.27
2023-05-08T20:51:00.993Z,17.22
2023-05-08T20:53:29.221Z,17.17
2023-05-08T20:56:04.238Z,17.10
2023-05-08T20:58:35.212Z,17.12
2023-05-08T21:01:03.277Z,17.05
2023-05-08T21:03:31.816Z,17.04
2023-05-08T21:06:00.824Z,17.05
2023-05-08T21:08:29.434Z,17.09
2023-05-08T21:10:57.185Z,17.16
2023-05-08T21:13:27.004Z,17.19
2023-05-08T21:15:56.786Z,17.17
2023-05-08T21:18:27.703Z,17.16
2023-05-08T21:20:55.934Z,17.12
2023-05-08T21:23:25.672Z,17.01
2023-05-08T21:25:53.577Z,16.99
2023-05-08T21:28:22.092Z,16.97
2023-05-08T21:30:54.276Z,16.77
2023-05-08T21:33:25.766Z,16.79
2023-05-08T21:35:57.441Z,16.79
2023-05-08T21:38:25.543Z,16.78
2023-05-08T21:40:53.846Z,16.77
2023-05-08T21:43:22.327Z,16.72
2023-05-08T21:45:51.871Z,16.65
2023-05-08T21:48:19.969Z,16.63
2023-05-08T21:50:49.038Z,16.66
2023-05-08T21:53:19.148Z,16.53
2023-05-08T21:55:50.976Z,16.49
2023-05-08T21:58:19.421Z,16.51
2023-05-08T22:00:47.441Z,16.51
2023-05-08T22:03:16.688Z,16.60
2023-05-08T22:05:47.722Z,16.43
2023-05-08T22:08:17.295Z,16.51
2023-05-08T22:10:46.184Z,16.48
2023-05-08T22:13:14.726Z,16.45
2023-05-08T22:15:44.144Z,16.40
2023-05-08T22:18:13.350Z,16.13
2023-05-08T22:20:41.451Z,16.11
2023-05-08T22:23:09.752Z,16.23
2023-05-08T22:25:39.528Z,16.25
2023-05-08T22:28:08.297Z,16.13
2023-05-08T22:30:37.320Z,16.11
2023-05-08T22:33:09.215Z,16.03
2023-05-08T22:35:38.287Z,15.98
2023-05-08T22:38:06.040Z,15.95
2023-05-08T22:40:35.684Z,15.93
2023-05-08T22:43:07.513Z,15.95
2023-05-08T22:45:35.683Z,15.96
2023-05-08T22:48:06.751Z,16.16
2023-05-08T22:50:36.459Z,16.31
2023-05-08T22:53:08.195Z,16.30
2023-05-08T22:55:36.511Z,16.37
2023-05-08T22:58:06.896Z,16.36
2023-05-08T23:00:35.319Z,16.48
2023-05-08T23:03:03.670Z,16.47
2023-05-08T23:05:32.008Z,16.44
2023-05-08T23:08:01.213Z,16.45
2023-05-08T23:10:31.937Z,16.50
2023-05-08T23:12:59.709Z,16.51
2023-05-08T23:15:31.070Z,16.60
2023-05-08T23:18:01.764Z,16.95
2023-05-08T23:20:29.502Z,16.85
2023-05-08T23:22:57.948Z,17.07
2023-05-08T23:25:27.584Z,16.79
2023-05-08T23:27:55.523Z,16.73
2023-05-08T23:30:23.488Z,16.69
2023-05-08T23:32:55.862Z,16.77
2023-05-08T23:35:24.845Z,16.72
2023-05-08T23:37:54.261Z,16.80
2023-05-08T23:40:22.655Z,16.70
2023-05-08T23:42:52.023Z,16.65
2023-05-08T23:45:20.067Z,16.69
2023-05-08T23:47:49.901Z,16.61
2023-05-08T23:50:20.427Z,16.55
2023-05-08T23:52:49.159Z,16.59
2023-05-08T23:55:17.079Z,16.62
2023-05-08T23:57:45.756Z,16.64
